createdAt,value
2022-11-09T00:08:09.927Z,-0.60
2022-11-09T00:18:13.651Z,-0.70
2022-11-09T00:28:18.808Z,-0.70
2022-11-09T00:38:24.421Z,-0.70
2022-11-09T00:48:29.879Z,-0.80
2022-11-09T00:58:36.975Z,-0.90
2022-11-09T01:08:42.698Z,-1.00
2022-11-09T01:18:47.019Z,-1.00
2022-11-09T01:28:54.431Z,-0.80
2022-11-09T01:38:58.500Z,-0.90
2022-11-09T01:49:09.994Z,-0.90
2022-11-09T01:59:19.078Z,-1.10
2022-11-09T02:09:30.844Z,-1.20
2022-11-09T02:19:36.409Z,-1.30
2022-11-09T02:29:46.056Z,-1.40
2022-11-09T02:39:50.224Z,-1.40
2022-11-09T02:49:57.988Z,-1.30
2022-11-09T03:00:03.563Z,-1.40
2022-11-09T03:10:10.555Z,-1.40
2022-11-09T03:20:15.649Z,-1.40
2022-11-09T03:30:21.509Z,-1.40
2022-11-09T03:40:25.593Z,-1.40
2022-11-09T03:50:33.263Z,-1.60
2022-11-09T04:00:37.446Z,-1.50
2022-11-09T04:10:42.601Z,-1.60
2022-11-09T04:20:46.365Z,-1.80
2022-11-09T04:30:51.622Z,-1.80
2022-11-09T04:40:55.361Z,-1.90
2022-11-09T04:51:05.047Z,-2.00
2022-11-09T05:01:12.189Z,-2.10
2022-11-09T05:11:17.600Z,-2.10
2022-11-09T05:21:22.086Z,-2.10
2022-11-09T05:31:27.845Z,-1.90
2022-11-09T05:41:31.725Z,-1.80
2022-11-09T05:51:36.926Z,-1.80
2022-11-09T06:01:40.710Z,-1.80
2022-11-09T06:11:46.847Z,-1.60
2022-11-09T06:21:50.539Z,-1.20
2022-11-09T06:31:55.950Z,-0.80
2022-11-09T06:41:59.738Z,-0.20
2022-11-09T06:52:05.390Z,0.40
2022-11-09T07:02:10.364Z,1.50
2022-11-09T07:12:15.422Z,2.70
2022-11-09T07:22:20.031Z,4.30
2022-11-09T07:32:46.968Z,8.80
2022-11-09T07:42:49.055Z,12.70
2022-11-09T07:52:54.191Z,15.80
2022-11-09T08:02:58.026Z,18.80
2022-11-09T08:13:06.349Z,21.90
2022-11-09T08:23:13.393Z,24.30
2022-11-09T08:33:18.614Z,25.70
2022-11-09T08:43:22.343Z,27.50
2022-11-09T08:53:29.871Z,29.30
2022-11-09T09:03:33.670Z,28.10
2022-11-09T09:13:43.060Z,29.50
2022-11-09T09:23:49.729Z,30.70
2022-11-09T09:33:54.775Z,33.40
2022-11-09T09:44:02.681Z,35.70
2022-11-09T09:54:14.405Z,34.10
2022-11-09T10:04:21.762Z,29.40
2022-11-09T10:14:45.869Z,23.20
2022-11-09T10:35:27.983Z,19.60
2022-11-09T10:45:34.574Z,19.00
2022-11-09T10:56:00.505Z,19.20
2022-11-09T11:06:31.583Z,19.80
2022-11-09T11:16:56.282Z,20.50
2022-11-09T11:27:28.509Z,28.10
2022-11-09T11:38:22.001Z,33.20
2022-11-09T11:49:15.276Z,35.70
2022-11-09T12:00:06.130Z,34.00
2022-11-09T12:10:44.462Z,32.30
2022-11-09T12:21:19.005Z,34.20
2022-11-09T12:31:54.721Z,35.60
2022-11-09T12:42:24.294Z,36.30
2022-11-09T12:52:49.389Z,36.10
2022-11-09T13:03:22.860Z,34.40
2022-11-09T13:13:45.811Z,35.00
2022-11-09T13:25:00.045Z,35.20
2022-11-09T13:36:16.038Z,33.60
2022-11-09T13:46:40.962Z,30.20
2022-11-09T13:57:07.603Z,29.20
2022-11-09T14:07:35.500Z,28.20
2022-11-09T14:18:13.807Z,24.70
2022-11-09T14:28:37.886Z,21.60
2022-11-09T14:39:04.638Z,18.20
2022-11-09T14:49:29.143Z,15.60
2022-11-09T14:59:51.612Z,13.60
2022-11-09T15:10:22.906Z,12.00
2022-11-09T15:20:44.965Z,10.60
2022-11-09T15:31:16.326Z,9.60
2022-11-09T15:41:39.066Z,8.60
2022-11-09T15:52:02.662Z,8.00
2022-11-09T16:02:25.087Z,7.60
2022-11-09T16:12:48.858Z,7.30
2022-11-09T16:23:11.115Z,6.40
2022-11-09T16:33:35.264Z,5.90
2022-11-09T16:43:58.750Z,5.80
2022-11-09T16:54:22.246Z,5.50
2022-11-09T17:04:44.589Z,5.10
2022-11-09T17:15:09.669Z,4.70
2022-11-09T17:25:31.949Z,4.30
2022-11-09T17:36:02.104Z,4.10
2022-11-09T17:46:24.737Z,3.90
2022-11-09T17:56:48.358Z,3.60
2022-11-09T18:07:10.365Z,3.20
2022-11-09T18:17:34.010Z,3.00
2022-11-09T18:27:55.858Z,2.90
2022-11-09T18:38:20.312Z,2.70
2022-11-09T18:48:43.679Z,2.70
2022-11-09T18:59:12.628Z,2.60
2022-11-09T19:09:37.194Z,2.50
2022-11-09T19:20:00.797Z,2.30
2022-11-09T19:30:25.995Z,2.30
2022-11-09T19:40:55.775Z,2.10
2022-11-09T19:51:20.252Z,2.10
2022-11-09T20:01:43.866Z,1.90
2022-11-09T20:12:23.533Z,1.60
2022-11-09T20:22:47.126Z,1.40
2022-11-09T20:33:10.749Z,1.30
2022-11-09T20:43:34.886Z,1.30
2022-11-09T20:53:56.883Z,1.00
2022-11-09T21:04:20.356Z,0.80
2022-11-09T21:14:42.489Z,0.70
2022-11-09T21:25:23.867Z,0.60
2022-11-09T21:35:45.954Z,0.50
2022-11-09T21:46:09.433Z,0.40
2022-11-09T21:56:31.238Z,0.30
2022-11-09T22:06:54.842Z,0.20
2022-11-09T22:17:16.890Z,0.20
2022-11-09T22:27:40.058Z,0.10
2022-11-09T22:38:03.208Z,0.10
2022-11-09T22:48:26.313Z,-0.10
2022-11-09T22:58:52.766Z,0.00
2022-11-09T23:09:15.800Z,0.10
2022-11-09T23:19:37.923Z,0.10
2022-11-09T23:30:01.102Z,0.30
2022-11-09T23:40:22.929Z,0.60
2022-11-09T23:50:48.136Z,0.70
